Terminal Aerodrome Forecast
Issued by NWS Lake Charles, LA

Home | Current Version | Previous Version | Text Only | Print | Product List | Glossary On
Versions: 1 2 3 4 5 6 7 8 9 10 11 12 13 14 15
963
FTUS44 KLCH 250526
TAFBPT
TAF
KBPT 250526Z 2506/2606 08004KT P6SM SCT015 SCT250
     FM250900 04005KT P6SM SCT015
     FM251500 04008KT P6SM VCTS SCT025CB BKN050
     FM260100 06004KT P6SM SCT060=

USA.gov is the U.S. government's official web portal to all federal, state and local government web resources and services.